Összefoglaló Pér: 

VentuSky:

Felhőkép magyaroszág: 

 

 

Keresés

Felhőkép 

Felhőkép

Széltérkép

Széltérkép

Győr-Pér Repülőtér

Élő webkamera kép

 Nagyobb kép

Győr-Pér Repülőtér

[Source: ADDS]
METAR
LHPR 080945Z AUTO 28007KT 220V330 CAVOK 24/09 Q1018 NOSIG =
LHPR 080815Z 0809/0818 24010KT CAVOK BECMG 0815/0818 24004KT
TAF
LHPR 080815Z 0809/0818 24010KT CAVOK BECMG 0815/0818 24004KT =
SR / SS: 03:00 / 18:47 UTC (Napkelte / Napnyugta 2020-07-08)

Kapcsolat

Telephely:     9099 Pér, Repülõtér

Klubhelyiség: 9021 Gyõr, Városház tér 3.

E-mail: info@aeroclub-gyor.hu

Telefon: 06-20-777-9106

Adószám: 19113832-2-08

JSN Metro template designed by JoomlaShine.com